createdAt,value
2023-08-12T00:02:13.946Z,100981.63
2023-08-12T00:04:46.928Z,101001.69
2023-08-12T00:07:18.557Z,100944.03
2023-08-12T00:09:50.713Z,100992.81
2023-08-12T00:12:22.139Z,100947.50
2023-08-12T00:14:53.567Z,100984.25
2023-08-12T00:17:25.148Z,100983.31
2023-08-12T00:19:57.466Z,100980.59
2023-08-12T00:22:28.858Z,100955.34
2023-08-12T00:25:00.359Z,100966.75
2023-08-12T00:27:31.743Z,100991.22
2023-08-12T00:30:03.512Z,100984.72
2023-08-12T00:32:35.026Z,100923.13
2023-08-12T00:35:07.020Z,100977.84
2023-08-12T00:37:38.407Z,100967.13
2023-08-12T00:40:10.533Z,100926.03
2023-08-12T00:42:42.235Z,100971.56
2023-08-12T00:45:14.375Z,100967.06
2023-08-12T00:47:45.965Z,100889.50
2023-08-12T00:50:17.476Z,100943.38
2023-08-12T00:52:50.495Z,100969.84
2023-08-12T00:55:22.472Z,100979.25
2023-08-12T00:57:53.916Z,100970.53
2023-08-12T01:00:25.796Z,100902.78
2023-08-12T01:02:57.626Z,100944.03
2023-08-12T01:05:31.172Z,100933.47
2023-08-12T01:08:02.858Z,100971.19
2023-08-12T01:10:37.865Z,100967.63
2023-08-12T01:13:28.467Z,100963.34
2023-08-12T01:16:05.167Z,100955.59
2023-08-12T01:18:39.535Z,100935.47
2023-08-12T01:21:16.282Z,100946.56
2023-08-12T01:23:48.173Z,100953.53
2023-08-12T01:26:19.588Z,100885.78
2023-08-12T01:28:50.956Z,100949.94
2023-08-12T01:31:32.234Z,100874.22
2023-08-12T01:34:12.505Z,100940.38
2023-08-12T01:36:50.496Z,100971.44
2023-08-12T01:39:24.144Z,100887.00
2023-08-12T01:41:56.625Z,100928.06
2023-08-12T01:44:29.484Z,100958.94
2023-08-12T01:47:01.325Z,100937.81
2023-08-12T01:49:32.692Z,100873.22
2023-08-12T01:52:04.228Z,100951.03
2023-08-12T01:54:36.048Z,100947.69
2023-08-12T01:57:09.330Z,100909.19
2023-08-12T01:59:41.291Z,100931.19
2023-08-12T02:02:13.470Z,100954.97
2023-08-12T02:04:45.749Z,100941.25
2023-08-12T02:07:17.233Z,100950.69
2023-08-12T02:09:48.686Z,100946.69
2023-08-12T02:12:20.175Z,100892.53
2023-08-12T02:14:51.683Z,100935.28
2023-08-12T02:17:23.048Z,100867.09
2023-08-12T02:19:54.484Z,100867.75
2023-08-12T02:22:25.936Z,100861.56
2023-08-12T02:24:57.640Z,100929.16
2023-08-12T02:27:29.077Z,100919.63
2023-08-12T02:30:00.474Z,100902.06
2023-08-12T02:32:32.040Z,100900.31
2023-08-12T02:35:03.602Z,100876.78
2023-08-12T02:37:35.085Z,100870.53
2023-08-12T02:40:07.135Z,100873.22
2023-08-12T02:42:38.544Z,100897.63
2023-08-12T02:45:10.324Z,100915.75
2023-08-12T02:47:41.991Z,100884.63
2023-08-12T02:50:13.395Z,100916.69
2023-08-12T02:52:44.823Z,100912.44
2023-08-12T02:55:16.207Z,100842.66
2023-08-12T02:57:47.658Z,100917.44
2023-08-12T03:00:19.468Z,100838.56
2023-08-12T03:02:51.178Z,100875.06
2023-08-12T03:05:24.141Z,100874.97
2023-08-12T03:07:55.561Z,100864.53
2023-08-12T03:10:26.984Z,100877.66
2023-08-12T03:12:58.325Z,100856.06
2023-08-12T03:15:29.725Z,100826.84
2023-08-12T03:18:01.263Z,100892.88
2023-08-12T03:20:32.691Z,100851.84
2023-08-12T03:23:04.273Z,100892.63
2023-08-12T03:25:35.681Z,100894.44
2023-08-12T03:28:07.090Z,100862.94
2023-08-12T03:30:38.470Z,100883.22
2023-08-12T03:33:09.927Z,100823.19
2023-08-12T03:35:46.179Z,100815.38
2023-08-12T03:38:17.880Z,100888.75
2023-08-12T03:40:50.675Z,100840.63
2023-08-12T03:43:22.067Z,100857.41
2023-08-12T03:45:53.496Z,100893.97
2023-08-12T03:48:24.903Z,100895.31
2023-08-12T03:50:56.257Z,100818.47
2023-08-12T03:53:27.659Z,100890.66
2023-08-12T03:55:59.179Z,100887.16
2023-08-12T03:58:30.847Z,100854.06
2023-08-12T04:01:02.271Z,100888.19
2023-08-12T04:03:33.741Z,100904.00
2023-08-12T04:06:05.219Z,100905.81
2023-08-12T04:08:36.608Z,100823.59
2023-08-12T04:11:08.140Z,100824.47
2023-08-12T04:13:39.604Z,100898.59
2023-08-12T04:16:13.081Z,100860.41
2023-08-12T04:18:44.460Z,100877.19
2023-08-12T04:21:15.887Z,100830.72
2023-08-12T04:23:47.212Z,100891.47
2023-08-12T04:26:18.622Z,100886.03
2023-08-12T04:28:49.971Z,100876.41
2023-08-12T04:31:21.333Z,100877.19
2023-08-12T04:33:53.922Z,100856.78
2023-08-12T04:36:25.348Z,100830.34
2023-08-12T04:38:56.667Z,100875.63
2023-08-12T04:41:28.021Z,100878.97
2023-08-12T04:43:59.387Z,100827.94
2023-08-12T04:46:30.783Z,100875.25
2023-08-12T04:49:02.353Z,100882.06
2023-08-12T04:51:34.682Z,100875.56
2023-08-12T04:54:06.027Z,100849.44
2023-08-12T04:56:37.476Z,100837.56
2023-08-12T04:59:09.669Z,100884.09
2023-08-12T05:01:50.940Z,100880.78
2023-08-12T05:04:30.300Z,100822.59
2023-08-12T05:07:01.983Z,100896.53
2023-08-12T05:09:33.645Z,100898.34
2023-08-12T05:12:05.334Z,100832.47
2023-08-12T05:14:36.669Z,100875.97
2023-08-12T05:17:08.567Z,100892.25
2023-08-12T05:19:39.987Z,100892.50
2023-08-12T05:22:12.357Z,100878.91
2023-08-12T05:24:43.895Z,100892.47
2023-08-12T05:27:15.522Z,100893.50
2023-08-12T05:29:46.930Z,100870.41
2023-08-12T05:32:18.330Z,100911.38
2023-08-12T05:34:56.459Z,100841.81
2023-08-12T05:37:27.873Z,100909.53
2023-08-12T05:39:59.412Z,100891.31
2023-08-12T05:42:30.810Z,100879.19
2023-08-12T05:45:02.535Z,100912.31
2023-08-12T05:47:34.037Z,100914.38
2023-08-12T05:50:07.364Z,100906.03
2023-08-12T05:52:38.872Z,100908.59
2023-08-12T05:55:10.302Z,100875.38
2023-08-12T05:57:41.621Z,100879.75
2023-08-12T06:00:13.421Z,100907.31
2023-08-12T06:02:44.836Z,100873.97
2023-08-12T06:05:16.340Z,100900.97
2023-08-12T06:07:47.770Z,100829.63
2023-08-12T06:10:19.142Z,100863.91
2023-08-12T06:12:50.550Z,100886.03
2023-08-12T06:15:21.959Z,100894.66
2023-08-12T06:17:53.349Z,100879.75
2023-08-12T06:20:25.982Z,100905.88
2023-08-12T06:22:57.628Z,100867.81
2023-08-12T06:25:29.001Z,100881.84
2023-08-12T06:28:00.568Z,100858.47
2023-08-12T06:30:32.389Z,100854.50
2023-08-12T06:33:04.082Z,100876.97
2023-08-12T06:35:35.583Z,100867.75
2023-08-12T06:38:07.019Z,100869.16
2023-08-12T06:40:41.421Z,100854.28
2023-08-12T06:43:12.949Z,100870.75
2023-08-12T06:45:44.293Z,100857.53
2023-08-12T06:48:15.707Z,100850.06
2023-08-12T06:50:47.152Z,100844.41
2023-08-12T06:53:18.549Z,100843.19
2023-08-12T06:55:50.000Z,100837.91
2023-08-12T06:58:22.197Z,100831.88
2023-08-12T07:00:55.005Z,100839.56
2023-08-12T07:03:26.742Z,100846.13
2023-08-12T07:05:58.267Z,100840.28
2023-08-12T07:08:29.681Z,100848.13
2023-08-12T07:11:01.068Z,100844.31
2023-08-12T07:13:32.737Z,100833.53
2023-08-12T07:16:04.361Z,100843.75
2023-08-12T07:18:35.973Z,100780.25
2023-08-12T07:21:07.455Z,100850.31
2023-08-12T07:23:41.989Z,100863.19
2023-08-12T07:26:13.596Z,100857.78
2023-08-12T07:28:44.978Z,100854.78
2023-08-12T07:31:16.443Z,100850.47
2023-08-12T07:33:47.998Z,100853.47
2023-08-12T07:36:19.428Z,100790.28
2023-08-12T07:38:50.945Z,100847.78
2023-08-12T07:41:22.413Z,100859.88
2023-08-12T07:43:54.061Z,100867.88
2023-08-12T07:46:25.587Z,100871.75
2023-08-12T07:48:57.832Z,100862.47
2023-08-12T07:51:29.169Z,100857.16
2023-08-12T07:54:00.679Z,100861.69
2023-08-12T07:56:32.065Z,100856.38
2023-08-12T07:59:04.154Z,100853.78
2023-08-12T08:01:37.965Z,100850.97
2023-08-12T08:04:10.574Z,100831.94
2023-08-12T08:06:42.084Z,100867.06
2023-08-12T08:09:13.789Z,100848.50
2023-08-12T08:11:45.200Z,100860.28
2023-08-12T08:14:17.837Z,100846.44
2023-08-12T08:16:49.344Z,100851.41
2023-08-12T08:19:20.848Z,100855.25
2023-08-12T08:21:52.204Z,100805.94
2023-08-12T08:24:23.575Z,100854.00
2023-08-12T08:26:54.983Z,100848.59
2023-08-12T08:29:26.376Z,100841.53
2023-08-12T08:31:57.723Z,100849.81
2023-08-12T08:34:29.268Z,100827.91
2023-08-12T08:37:00.637Z,100785.19
2023-08-12T08:39:32.223Z,100826.81
2023-08-12T08:42:06.289Z,100836.59
2023-08-12T08:44:43.002Z,100779.69
2023-08-12T08:47:17.639Z,100831.00
2023-08-12T08:49:49.107Z,100803.88
2023-08-12T08:52:21.223Z,100814.97
2023-08-12T08:54:53.418Z,100821.72
2023-08-12T08:57:38.859Z,100821.13
2023-08-12T09:00:18.842Z,100795.88
2023-08-12T09:02:52.426Z,100785.69
2023-08-12T09:05:24.708Z,100847.50
2023-08-12T09:07:57.662Z,100780.56
2023-08-12T09:10:30.837Z,100839.59
2023-08-12T09:13:03.220Z,100853.38
2023-08-12T09:15:35.067Z,100841.63
2023-08-12T09:18:07.383Z,100810.72
2023-08-12T09:20:39.242Z,100833.38
2023-08-12T09:23:12.035Z,100801.56
2023-08-12T09:25:46.578Z,100831.88
2023-08-12T09:28:17.958Z,100841.59
2023-08-12T09:30:53.712Z,100770.13
2023-08-12T09:33:28.014Z,100824.41
2023-08-12T09:35:59.448Z,100818.63
2023-08-12T09:38:31.422Z,100818.69
2023-08-12T09:41:03.165Z,100756.38
2023-08-12T09:43:34.626Z,100783.13
2023-08-12T09:46:06.524Z,100823.81
2023-08-12T09:48:38.110Z,100835.91
2023-08-12T09:51:10.131Z,100821.69
2023-08-12T09:53:43.225Z,100808.63
2023-08-12T09:56:18.282Z,100771.63
2023-08-12T09:58:50.679Z,100795.28
2023-08-12T10:01:22.833Z,100816.47
2023-08-12T10:03:55.649Z,100806.25
2023-08-12T10:06:27.988Z,100797.09
2023-08-12T10:08:59.446Z,100787.97
2023-08-12T10:11:31.597Z,100809.41
2023-08-12T10:14:05.016Z,100806.00
2023-08-12T10:16:37.458Z,100763.50
2023-08-12T10:19:15.192Z,100803.06
2023-08-12T10:21:50.789Z,100777.56
2023-08-12T10:24:22.465Z,100789.03
2023-08-12T10:26:54.568Z,100797.09
2023-08-12T10:29:26.188Z,100806.53
2023-08-12T10:31:58.532Z,100802.13
2023-08-12T10:34:30.550Z,100802.28
2023-08-12T10:37:04.206Z,100742.06
2023-08-12T10:39:36.549Z,100798.69
2023-08-12T10:42:07.916Z,100795.50
2023-08-12T10:44:41.857Z,100791.31
2023-08-12T10:47:13.361Z,100732.94
2023-08-12T10:49:49.938Z,100782.03
2023-08-12T10:52:31.940Z,100780.56
2023-08-12T10:55:23.044Z,100782.03
2023-08-12T10:57:57.204Z,100709.94
2023-08-12T11:00:30.395Z,100774.00
2023-08-12T11:03:06.789Z,100720.81
2023-08-12T11:05:38.849Z,100742.78
2023-08-12T11:08:13.799Z,100711.84
2023-08-12T11:10:45.418Z,100768.47
2023-08-12T11:13:16.852Z,100765.50
2023-08-12T11:15:49.099Z,100716.63
2023-08-12T11:18:21.605Z,100701.75
2023-08-12T11:20:54.408Z,100764.41
2023-08-12T11:23:25.798Z,100763.50
2023-08-12T11:25:59.088Z,100771.69
2023-08-12T11:28:30.523Z,100755.41
2023-08-12T11:31:02.264Z,100758.63
2023-08-12T11:33:33.817Z,100760.56
2023-08-12T11:36:05.651Z,100700.75
2023-08-12T11:38:38.470Z,100760.38
2023-08-12T11:41:09.829Z,100746.47
2023-08-12T11:43:41.168Z,100756.53
2023-08-12T11:46:12.561Z,100748.28
2023-08-12T11:48:44.724Z,100680.50
2023-08-12T11:51:16.279Z,100757.56
2023-08-12T11:53:47.685Z,100737.91
2023-08-12T11:56:21.423Z,100699.75
2023-08-12T11:58:56.911Z,100652.13
2023-08-12T12:01:29.538Z,100671.94
2023-08-12T12:04:04.990Z,100611.28
2023-08-12T12:06:39.743Z,100656.34
2023-08-12T12:09:11.395Z,100620.41
2023-08-12T12:11:43.308Z,100661.09
2023-08-12T12:14:14.748Z,100664.34
2023-08-12T12:16:48.176Z,100658.28
2023-08-12T12:19:21.693Z,100681.03
2023-08-12T12:21:54.272Z,100698.13
2023-08-12T12:24:30.708Z,100691.28
2023-08-12T12:27:02.223Z,100686.88
2023-08-12T12:29:35.776Z,100687.88
2023-08-12T12:32:07.170Z,100671.47
2023-08-12T12:34:39.824Z,100702.69
2023-08-12T12:37:11.265Z,100695.97
2023-08-12T12:39:42.780Z,100684.81
2023-08-12T12:42:15.055Z,100689.25
2023-08-12T12:44:46.699Z,100688.16
2023-08-12T12:47:19.168Z,100618.41
2023-08-12T12:49:50.642Z,100676.63
2023-08-12T12:52:22.140Z,100669.25
2023-08-12T12:54:53.603Z,100644.28
2023-08-12T12:57:25.063Z,100669.88
2023-08-12T12:59:56.410Z,100616.72
2023-08-12T13:02:28.025Z,100683.75
2023-08-12T13:04:59.408Z,100667.94
2023-08-12T13:07:30.768Z,100664.34
2023-08-12T13:10:02.230Z,100644.22
2023-08-12T13:12:33.770Z,100649.41
2023-08-12T13:15:05.692Z,100656.34
2023-08-12T13:17:37.139Z,100653.84
2023-08-12T13:20:10.705Z,100611.06
2023-08-12T13:22:42.080Z,100589.16
2023-08-12T13:25:13.610Z,100639.94
2023-08-12T13:27:45.143Z,100634.47
2023-08-12T13:30:16.675Z,100620.97
2023-08-12T13:32:48.216Z,100631.06
2023-08-12T13:35:20.196Z,100593.50
2023-08-12T13:37:55.271Z,100612.53
2023-08-12T13:40:26.770Z,100634.50
2023-08-12T13:42:58.208Z,100628.88
2023-08-12T13:45:30.077Z,100601.34
2023-08-12T13:48:01.519Z,100631.22
2023-08-12T13:50:33.836Z,100633.72
2023-08-12T13:53:05.370Z,100587.75
2023-08-12T13:55:36.696Z,100637.09
2023-08-12T13:58:08.106Z,100628.00
2023-08-12T14:00:39.478Z,100622.97
2023-08-12T14:03:10.823Z,100586.81
2023-08-12T14:05:43.241Z,100617.44
2023-08-12T14:08:14.697Z,100621.53
2023-08-12T14:10:49.448Z,100622.06
2023-08-12T14:13:20.896Z,100636.81
2023-08-12T14:15:54.442Z,100548.38
2023-08-12T14:18:26.943Z,100554.25
2023-08-12T14:20:58.507Z,100610.94
2023-08-12T14:23:29.979Z,100556.09
2023-08-12T14:26:02.169Z,100556.84
2023-08-12T14:28:33.655Z,100602.75
2023-08-12T14:31:05.389Z,100549.97
2023-08-12T14:33:38.432Z,100618.19
2023-08-12T14:36:09.882Z,100612.47
2023-08-12T14:38:41.321Z,100602.38
2023-08-12T14:41:12.844Z,100603.25
2023-08-12T14:43:44.285Z,100576.63
2023-08-12T14:46:16.041Z,100606.50
2023-08-12T14:48:47.599Z,100552.50
2023-08-12T14:51:19.047Z,100588.16
2023-08-12T14:53:50.625Z,100546.88
2023-08-12T14:56:22.072Z,100532.28
2023-08-12T14:58:53.420Z,100600.25
2023-08-12T15:01:28.853Z,100591.69
2023-08-12T15:04:00.296Z,100588.91
2023-08-12T15:06:31.709Z,100590.25
2023-08-12T15:09:03.561Z,100592.97
2023-08-12T15:11:35.761Z,100575.56
2023-08-12T15:14:07.283Z,100584.56
2023-08-12T15:16:38.827Z,100578.88
2023-08-12T15:19:10.228Z,100577.75
2023-08-12T15:21:41.602Z,100549.75
2023-08-12T15:24:13.564Z,100574.56
2023-08-12T15:26:45.326Z,100515.19
2023-08-12T15:29:16.677Z,100578.66
2023-08-12T15:31:48.032Z,100555.31
2023-08-12T15:34:19.430Z,100578.66
2023-08-12T15:36:53.908Z,100555.31
2023-08-12T15:39:25.259Z,100503.13
2023-08-12T15:41:56.723Z,100573.41
2023-08-12T15:44:28.065Z,100570.06
2023-08-12T15:46:59.536Z,100556.44
2023-08-12T15:49:33.527Z,100565.81
2023-08-12T15:52:05.125Z,100581.56
2023-08-12T15:54:36.474Z,100580.00
2023-08-12T15:57:07.879Z,100584.28
2023-08-12T15:59:39.278Z,100539.50
2023-08-12T16:02:10.883Z,100514.41
2023-08-12T16:04:43.123Z,100565.97
2023-08-12T16:07:15.887Z,100594.47
2023-08-12T16:09:49.276Z,100560.84
2023-08-12T16:12:20.944Z,100583.00
2023-08-12T16:14:52.378Z,100559.78
2023-08-12T16:17:23.862Z,100623.78
2023-08-12T16:19:55.255Z,100604.56
2023-08-12T16:22:26.630Z,100602.84
2023-08-12T16:24:57.991Z,100622.81
2023-08-12T16:27:29.340Z,100597.84
2023-08-12T16:30:00.703Z,100628.44
2023-08-12T16:32:32.134Z,100630.94
2023-08-12T16:35:03.848Z,100590.19
2023-08-12T16:37:35.917Z,100644.88
2023-08-12T16:40:07.985Z,100639.72
2023-08-12T16:42:39.452Z,100649.94
2023-08-12T16:45:13.888Z,100630.78
2023-08-12T16:47:45.488Z,100646.47
2023-08-12T16:50:16.925Z,100656.34
2023-08-12T16:52:48.542Z,100652.66
2023-08-12T16:55:19.905Z,100608.03
2023-08-12T16:57:51.324Z,100652.13
2023-08-12T17:00:22.705Z,100665.66
2023-08-12T17:02:54.106Z,100672.59
2023-08-12T17:05:25.591Z,100665.44
2023-08-12T17:07:57.029Z,100658.28
2023-08-12T17:10:30.078Z,100652.88
2023-08-12T17:13:01.704Z,100629.16
2023-08-12T17:15:33.223Z,100637.81
2023-08-12T17:18:05.075Z,100656.75
2023-08-12T17:20:36.561Z,100668.25
2023-08-12T17:23:08.205Z,100665.97
2023-08-12T17:25:39.688Z,100680.16
2023-08-12T17:28:11.211Z,100662.41
2023-08-12T17:30:42.602Z,100608.00
2023-08-12T17:33:13.980Z,100619.00
2023-08-12T17:35:45.500Z,100662.06
2023-08-12T17:38:16.863Z,100688.53
2023-08-12T17:40:51.080Z,100691.66
2023-08-12T17:43:22.416Z,100722.16
2023-08-12T17:45:53.898Z,100709.56
2023-08-12T17:48:25.249Z,100710.63
2023-08-12T17:50:56.708Z,100705.31
2023-08-12T17:53:28.149Z,100661.56
2023-08-12T17:55:59.624Z,100731.38
2023-08-12T17:58:31.269Z,100733.31
2023-08-12T18:01:02.680Z,100735.44
2023-08-12T18:03:34.168Z,100745.50
2023-08-12T18:06:06.325Z,100741.81
2023-08-12T18:08:38.050Z,100683.97
2023-08-12T18:11:09.464Z,100760.22
2023-08-12T18:13:40.868Z,100704.34
2023-08-12T18:16:12.520Z,100714.94
2023-08-12T18:18:44.046Z,100765.56
2023-08-12T18:21:15.538Z,100774.44
2023-08-12T18:23:49.315Z,100711.09
2023-08-12T18:26:21.814Z,100766.16
2023-08-12T18:28:53.223Z,100780.41
2023-08-12T18:31:24.858Z,100793.06
2023-08-12T18:33:56.318Z,100729.16
2023-08-12T18:36:27.787Z,100739.38
2023-08-12T18:38:59.494Z,100806.09
2023-08-12T18:41:31.194Z,100814.38
2023-08-12T18:44:02.647Z,100817.44
2023-08-12T18:46:34.073Z,100817.78
2023-08-12T18:49:05.470Z,100825.00
2023-08-12T18:51:37.217Z,100778.53
2023-08-12T18:54:08.592Z,100836.72
2023-08-12T18:56:40.513Z,100800.69
2023-08-12T18:59:12.085Z,100826.59
2023-08-12T19:01:43.504Z,100840.25
2023-08-12T19:04:15.065Z,100845.38
2023-08-12T19:06:46.487Z,100783.06
2023-08-12T19:09:18.432Z,100836.22
2023-08-12T19:11:49.864Z,100826.91
2023-08-12T19:14:21.459Z,100797.66
2023-08-12T19:16:52.929Z,100856.63
2023-08-12T19:19:24.480Z,100868.06
2023-08-12T19:21:56.077Z,100829.41
2023-08-12T19:24:28.039Z,100867.66
2023-08-12T19:26:59.391Z,100848.78
2023-08-12T19:29:30.822Z,100856.38
2023-08-12T19:32:02.222Z,100855.50
2023-08-12T19:34:34.536Z,100800.81
2023-08-12T19:37:06.228Z,100794.41
2023-08-12T19:39:37.610Z,100870.72
2023-08-12T19:42:09.125Z,100864.16
2023-08-12T19:44:40.496Z,100786.50
2023-08-12T19:47:12.277Z,100855.38
2023-08-12T19:49:43.647Z,100855.38
2023-08-12T19:52:15.515Z,100813.63
2023-08-12T19:54:47.074Z,100812.28
2023-08-12T19:57:18.447Z,100864.41
2023-08-12T19:59:49.841Z,100885.94
2023-08-12T20:02:36.687Z,100807.63
2023-08-12T20:05:18.794Z,100847.03
2023-08-12T20:07:50.398Z,100849.16
2023-08-12T20:10:21.993Z,100847.66
2023-08-12T20:12:54.522Z,100875.13
2023-08-12T20:15:27.275Z,100883.28
2023-08-12T20:17:59.597Z,100849.53
2023-08-12T20:20:31.214Z,100888.84
2023-08-12T20:23:06.615Z,100838.13
2023-08-12T20:25:38.149Z,100815.91
2023-08-12T20:28:09.534Z,100876.69
2023-08-12T20:30:40.892Z,100902.47
2023-08-12T20:33:12.415Z,100882.13
2023-08-12T20:35:44.220Z,100889.41
2023-08-12T20:38:19.121Z,100885.25
2023-08-12T20:40:51.045Z,100875.22
2023-08-12T20:43:22.672Z,100885.97
2023-08-12T20:45:54.064Z,100883.75
2023-08-12T20:48:25.596Z,100885.72
2023-08-12T20:50:57.183Z,100886.13
2023-08-12T20:53:29.916Z,100886.41
2023-08-12T20:56:01.436Z,100878.97
2023-08-12T20:58:32.955Z,100879.09
2023-08-12T21:01:05.379Z,100893.44
2023-08-12T21:03:37.270Z,100885.06
2023-08-12T21:06:10.119Z,100881.91
2023-08-12T21:08:41.828Z,100895.25
2023-08-12T21:11:13.687Z,100890.28
2023-08-12T21:13:45.127Z,100824.22
2023-08-12T21:16:17.754Z,100816.50
2023-08-12T21:18:49.277Z,100886.69
2023-08-12T21:21:20.669Z,100895.47
2023-08-12T21:23:52.469Z,100886.94
2023-08-12T21:26:23.935Z,100881.00
2023-08-12T21:28:55.297Z,100876.66
2023-08-12T21:31:26.766Z,100888.38
2023-08-12T21:33:58.424Z,100810.78
2023-08-12T21:36:32.888Z,100896.59
2023-08-12T21:39:06.264Z,100869.53
2023-08-12T21:41:37.681Z,100878.28
2023-08-12T21:44:09.189Z,100900.53
2023-08-12T21:46:40.960Z,100814.81
2023-08-12T21:49:12.523Z,100882.19
2023-08-12T21:51:44.125Z,100808.06
2023-08-12T21:54:15.508Z,100895.84
2023-08-12T21:56:47.198Z,100831.88
2023-08-12T21:59:20.233Z,100887.91
2023-08-12T22:01:51.633Z,100878.56
2023-08-12T22:04:23.835Z,100807.84
2023-08-12T22:06:55.331Z,100884.28
2023-08-12T22:09:29.645Z,100878.97
2023-08-12T22:12:01.158Z,100890.63
2023-08-12T22:14:33.266Z,100880.19
2023-08-12T22:17:05.229Z,100846.16
2023-08-12T22:19:36.944Z,100878.75
2023-08-12T22:22:19.018Z,100837.72
2023-08-12T22:24:51.134Z,100891.25
2023-08-12T22:27:22.583Z,100892.31
2023-08-12T22:29:53.962Z,100888.94
2023-08-12T22:32:25.348Z,100893.41
2023-08-12T22:34:56.782Z,100891.66
2023-08-12T22:37:28.284Z,100854.34
2023-08-12T22:39:59.723Z,100885.94
2023-08-12T22:42:31.073Z,100862.53
2023-08-12T22:45:02.478Z,100910.03
2023-08-12T22:47:34.438Z,100898.50
2023-08-12T22:50:07.321Z,100889.06
2023-08-12T22:52:39.444Z,100898.25
2023-08-12T22:55:12.059Z,100900.00
2023-08-12T22:57:43.455Z,100888.75
2023-08-12T23:00:15.133Z,100908.25
2023-08-12T23:02:47.353Z,100852.09
2023-08-12T23:05:19.077Z,100911.84
2023-08-12T23:07:50.598Z,100898.03
2023-08-12T23:10:22.213Z,100888.41
2023-08-12T23:12:53.538Z,100907.75
2023-08-12T23:15:24.970Z,100835.31
2023-08-12T23:17:56.693Z,100900.97
2023-08-12T23:20:28.092Z,100925.63
2023-08-12T23:22:59.489Z,100915.25
2023-08-12T23:25:31.135Z,100850.38
2023-08-12T23:28:03.915Z,100840.00
2023-08-12T23:30:35.298Z,100826.84
2023-08-12T23:33:06.661Z,100902.03
2023-08-12T23:35:38.091Z,100900.41
2023-08-12T23:38:09.518Z,100897.56
2023-08-12T23:40:40.924Z,100882.06
2023-08-12T23:43:12.275Z,100895.94
2023-08-12T23:45:43.696Z,100906.53
2023-08-12T23:48:15.279Z,100896.03
2023-08-12T23:50:46.738Z,100901.38
2023-08-12T23:53:18.158Z,100906.84
2023-08-12T23:55:49.533Z,100911.25
2023-08-12T23:58:20.942Z,100906.94
